KMUI/MUI METAR and TAF weather

Enter ICAO airport designator
Station Type Date Time Source
KMUI METAR 2019/04/25 15:56 UTC NOAA

KMUI 251556Z AUTO 07005KT 10SM -DZ SCT055 OVC090 14/06 A2995 RMK AO2 DZB52 SLP144 P0000 T01440060


Station Type Date Time Source
KMUI Decoded METAR 2019/04/25 15:56 UTC NOAA

Muir Army Air Field / Indiantown, PA, United States (KMUI) 40-26N 076-34W
Apr 25, 2019 - 11:56 AM EDT / 2019.04.25 1556 UTC
Wind: from the ENE (070 degrees) at 6 MPH (5 KT):0
Visibility: 10 mile(s):0
Sky conditions: overcast
Weather: light drizzle
Precipitation last hour: A trace
Temperature: 57.9 F (14.4 C)
Dew Point: 42.8 F (6.0 C)
Relative Humidity: 57%
Pressure (altimeter): 29.95 in. Hg (1014 hPa)
ob: KMUI 251556Z AUTO 07005KT 10SM -DZ SCT055 OVC090 14/06 A2995 RMK AO2 DZB52 SLP144 P0000 T01440060
cycle: 16

Station Type Date Time Source
KMUI TAF 2019/04/25 11:06 UTC NOAA

TAF KMUI 251100Z 2511/2617 06006KT 9999 BKN080 QNH2985INS
BECMG 2517/2518 VRB06KT 9000 -SHRA BKN035 OVC050 QNH2982INS
BECMG 2605/2606 11009KT 8000 -RA BR BKN010 QNH2978INS
BECMG 2608/2609 11006KT 4800 -RA OVC008 QNH2963INS
BECMG 2616/2617 17009KT 4800 BR BKN010 QNH2942INS TX18/2517Z TN10/2511Z

Example: see airport list